createdAt,value
2019-04-10T00:01:53.254Z,13.09
2019-04-10T00:04:25.204Z,13.05
2019-04-10T00:07:08.379Z,13.07
2019-04-10T00:09:29.458Z,13.00
2019-04-10T00:12:00.996Z,12.92
2019-04-10T00:14:32.435Z,13.03
2019-04-10T00:17:03.471Z,13.06
2019-04-10T00:19:35.732Z,13.01
2019-04-10T00:22:06.897Z,13.05
2019-04-10T00:24:37.927Z,12.94
2019-04-10T00:27:08.883Z,12.87
2019-04-10T00:29:40.415Z,13.10
2019-04-10T00:32:11.951Z,12.96
2019-04-10T00:34:43.010Z,12.91
2019-04-10T00:37:21.880Z,12.99
2019-04-10T00:39:46.696Z,13.10
2019-04-10T00:42:18.785Z,13.09
2019-04-10T00:44:50.165Z,12.79
2019-04-10T00:47:21.270Z,12.81
2019-04-10T00:49:52.331Z,13.04
2019-04-10T00:52:24.096Z,12.85
2019-04-10T00:54:55.393Z,12.71
2019-04-10T00:57:27.520Z,12.98
2019-04-10T00:59:58.870Z,12.96
2019-04-10T01:02:29.956Z,12.54
2019-04-10T01:05:00.940Z,12.64
2019-04-10T01:07:39.457Z,12.93
2019-04-10T01:10:08.148Z,12.89
2019-04-10T01:12:40.435Z,12.97
2019-04-10T01:15:12.129Z,13.05
2019-04-10T01:17:43.384Z,13.01
2019-04-10T01:20:15.608Z,13.06
2019-04-10T01:22:47.682Z,12.86
2019-04-10T01:25:18.756Z,12.47
2019-04-10T01:27:50.032Z,12.65
2019-04-10T01:30:22.167Z,12.67
2019-04-10T01:32:54.360Z,12.63
2019-04-10T01:35:26.541Z,12.51
2019-04-10T01:38:00.998Z,12.76
2019-04-10T01:40:30.910Z,12.67
2019-04-10T01:43:09.946Z,12.24
2019-04-10T01:45:36.055Z,12.90
2019-04-10T01:48:07.913Z,12.81
2019-04-10T01:50:39.029Z,12.72
2019-04-10T01:53:10.021Z,12.43
2019-04-10T01:55:41.014Z,12.42
2019-04-10T01:58:21.094Z,12.41
2019-04-10T02:01:14.337Z,12.80
2019-04-10T02:03:46.501Z,12.81
2019-04-10T02:06:18.861Z,12.69
2019-04-10T02:08:50.039Z,12.73
2019-04-10T02:11:21.744Z,12.59
2019-04-10T02:13:53.896Z,12.73
2019-04-10T02:16:25.576Z,12.59
2019-04-10T02:18:57.725Z,12.74
2019-04-10T02:21:28.807Z,12.76
2019-04-10T02:24:00.823Z,12.66
2019-04-10T02:26:32.069Z,12.53
2019-04-10T02:29:03.815Z,12.50
2019-04-10T02:31:36.464Z,12.67
2019-04-10T02:34:09.379Z,12.32
2019-04-10T02:36:40.497Z,12.56
2019-04-10T02:39:20.546Z,12.67
2019-04-10T02:41:45.714Z,12.59
2019-04-10T02:44:18.513Z,12.64
2019-04-10T02:46:50.187Z,12.35
2019-04-10T02:49:22.532Z,12.73
2019-04-10T02:51:54.851Z,12.64
2019-04-10T02:54:27.066Z,12.69
2019-04-10T02:56:58.623Z,12.67
2019-04-10T02:59:30.947Z,12.61
2019-04-10T03:02:02.929Z,12.72
2019-04-10T03:04:37.073Z,12.65
2019-04-10T03:07:09.491Z,12.77
2019-04-10T03:09:53.644Z,12.50
2019-04-10T03:12:14.559Z,12.59
2019-04-10T03:14:47.521Z,12.42
2019-04-10T03:17:19.759Z,12.39
2019-04-10T03:19:51.859Z,12.21
2019-04-10T03:22:23.084Z,12.50
2019-04-10T03:24:54.736Z,12.60
2019-04-10T03:27:26.032Z,12.52
2019-04-10T03:29:57.344Z,12.54
2019-04-10T03:32:51.779Z,12.44
2019-04-10T03:35:27.257Z,12.49
2019-04-10T03:37:59.181Z,12.44
2019-04-10T03:40:31.375Z,12.53
2019-04-10T03:43:03.546Z,12.36
2019-04-10T03:45:34.803Z,12.46
2019-04-10T03:48:06.429Z,12.23
2019-04-10T03:50:37.595Z,12.31
2019-04-10T03:53:09.619Z,12.62
2019-04-10T03:55:41.053Z,12.45
2019-04-10T03:58:12.043Z,12.21
2019-04-10T04:00:43.278Z,12.57
2019-04-10T04:03:14.255Z,12.27
2019-04-10T04:05:45.327Z,12.42
2019-04-10T04:08:16.326Z,12.59
2019-04-10T04:10:47.309Z,12.56
2019-04-10T04:13:19.471Z,12.55
2019-04-10T04:15:50.673Z,12.76
2019-04-10T04:18:21.845Z,12.67
2019-04-10T04:20:53.047Z,12.53
2019-04-10T04:23:24.036Z,12.68
2019-04-10T04:25:55.106Z,12.37
2019-04-10T04:28:26.157Z,12.35
2019-04-10T04:30:57.235Z,12.24
2019-04-10T04:33:28.244Z,12.28
2019-04-10T04:35:59.915Z,12.01
2019-04-10T04:38:31.022Z,12.34
2019-04-10T04:41:02.409Z,12.32
2019-04-10T04:43:33.495Z,12.21
2019-04-10T04:46:04.563Z,12.39
2019-04-10T04:48:35.548Z,12.40
2019-04-10T04:51:06.771Z,12.35
2019-04-10T04:53:37.822Z,12.33
2019-04-10T04:56:09.481Z,12.28
2019-04-10T04:58:40.660Z,12.29
2019-04-10T05:01:12.672Z,12.14
2019-04-10T05:03:44.337Z,12.29
2019-04-10T05:06:16.014Z,12.40
2019-04-10T05:08:47.173Z,12.43
2019-04-10T05:11:18.380Z,11.45
2019-04-10T05:13:49.474Z,12.07
2019-04-10T05:16:20.692Z,12.18
2019-04-10T05:18:52.021Z,12.19
2019-04-10T05:21:23.221Z,12.22
2019-04-10T05:23:54.197Z,12.41
2019-04-10T05:26:25.684Z,12.24
2019-04-10T05:28:57.117Z,12.57
2019-04-10T05:31:28.206Z,12.31
2019-04-10T05:33:59.221Z,12.48
2019-04-10T05:36:31.228Z,12.52
2019-04-10T05:39:04.246Z,12.55
2019-04-10T05:41:35.279Z,12.51
2019-04-10T05:44:07.422Z,12.49
2019-04-10T05:46:38.841Z,12.45
2019-04-10T05:49:11.142Z,12.40
2019-04-10T05:51:42.128Z,12.55
2019-04-10T05:54:13.115Z,12.39
2019-04-10T05:56:44.796Z,12.45
2019-04-10T05:59:16.406Z,12.21
2019-04-10T06:01:48.480Z,12.37
2019-04-10T06:04:19.676Z,12.11
2019-04-10T06:06:50.655Z,12.17
2019-04-10T06:09:22.670Z,12.22
2019-04-10T06:11:53.743Z,12.33
2019-04-10T06:14:24.721Z,12.38
2019-04-10T06:16:55.773Z,12.29
2019-04-10T06:19:26.985Z,12.43
2019-04-10T06:21:58.035Z,12.35
2019-04-10T06:24:29.948Z,12.13
2019-04-10T06:27:01.870Z,12.39
2019-04-10T06:29:33.096Z,12.50
2019-04-10T06:32:05.238Z,12.54
2019-04-10T06:34:38.398Z,12.50
2019-04-10T06:37:10.262Z,12.65
2019-04-10T06:39:43.410Z,12.63
2019-04-10T06:42:14.289Z,12.65
2019-04-10T06:44:46.052Z,12.38
2019-04-10T06:47:18.146Z,12.19
2019-04-10T06:49:49.222Z,12.22
2019-04-10T06:52:20.690Z,12.39
2019-04-10T06:54:51.668Z,12.30
2019-04-10T06:57:22.965Z,12.56
2019-04-10T06:59:54.427Z,12.07
2019-04-10T07:02:30.530Z,12.26
2019-04-10T07:05:04.994Z,11.97
2019-04-10T07:07:46.356Z,11.60
2019-04-10T07:10:19.673Z,12.02
2019-04-10T07:12:38.039Z,12.23
2019-04-10T07:15:10.544Z,12.15
2019-04-10T07:17:42.215Z,12.06
2019-04-10T07:20:18.389Z,12.11
2019-04-10T07:22:49.732Z,12.28
2019-04-10T07:25:21.781Z,11.64
2019-04-10T07:27:54.237Z,12.12
2019-04-10T07:30:26.622Z,12.21
2019-04-10T07:32:59.196Z,12.37
2019-04-10T07:35:33.714Z,11.89
2019-04-10T07:38:03.101Z,11.79
2019-04-10T07:40:36.455Z,11.50
2019-04-10T07:43:06.898Z,12.22
2019-04-10T07:45:39.208Z,11.78
2019-04-10T07:48:10.710Z,12.11
2019-04-10T07:50:44.465Z,11.89
2019-04-10T07:53:14.895Z,12.16
2019-04-10T07:55:59.054Z,11.89
2019-04-10T07:58:19.491Z,12.44
2019-04-10T08:00:51.417Z,12.00
2019-04-10T08:03:22.894Z,11.87
2019-04-10T08:05:54.745Z,11.95
2019-04-10T08:08:26.024Z,11.96
2019-04-10T08:10:57.411Z,12.29
2019-04-10T08:13:28.897Z,12.26
2019-04-10T08:16:02.752Z,12.15
2019-04-10T08:18:35.045Z,12.02
2019-04-10T08:21:07.130Z,12.11
2019-04-10T08:23:38.399Z,11.98
2019-04-10T08:26:09.408Z,11.85
2019-04-10T08:28:41.287Z,11.78
2019-04-10T08:31:12.779Z,11.60
2019-04-10T08:33:44.066Z,11.60
2019-04-10T08:36:15.315Z,11.67
2019-04-10T08:38:46.689Z,11.73
2019-04-10T08:41:17.924Z,11.79
2019-04-10T08:43:50.184Z,11.29
2019-04-10T08:46:21.879Z,11.12
2019-04-10T08:48:53.920Z,11.59
2019-04-10T08:51:25.674Z,11.29
2019-04-10T08:53:56.938Z,10.95
2019-04-10T08:56:28.071Z,11.41
2019-04-10T08:59:00.356Z,11.40
2019-04-10T09:01:31.711Z,11.05
2019-04-10T09:04:03.631Z,11.21
2019-04-10T09:06:35.625Z,11.27
2019-04-10T09:09:09.652Z,11.20
2019-04-10T09:11:41.076Z,11.35
2019-04-10T09:14:12.842Z,11.49
2019-04-10T09:16:44.922Z,11.51
2019-04-10T09:19:16.187Z,11.40
2019-04-10T09:21:47.906Z,11.77
2019-04-10T09:24:19.638Z,11.89
2019-04-10T09:26:50.906Z,11.65
2019-04-10T09:29:24.717Z,11.41
2019-04-10T09:31:55.984Z,11.59
2019-04-10T09:34:27.673Z,11.23
2019-04-10T09:36:59.820Z,11.03
2019-04-10T09:39:31.800Z,11.47
2019-04-10T09:42:03.350Z,11.79
2019-04-10T09:44:35.609Z,11.20
2019-04-10T09:47:07.738Z,11.63
2019-04-10T09:49:43.701Z,11.56
2019-04-10T09:52:12.407Z,11.85
2019-04-10T09:54:43.690Z,11.86
2019-04-10T09:57:15.386Z,11.65
2019-04-10T09:59:47.269Z,11.93
2019-04-10T10:02:19.554Z,11.82
2019-04-10T10:04:50.781Z,11.86
2019-04-10T10:07:21.727Z,11.77
2019-04-10T10:09:52.751Z,12.03
2019-04-10T10:12:23.727Z,11.98
2019-04-10T10:14:55.961Z,12.19
2019-04-10T10:17:28.526Z,12.24
2019-04-10T10:19:59.724Z,12.30
2019-04-10T10:22:31.945Z,12.52
2019-04-10T10:25:03.175Z,12.08
2019-04-10T10:27:35.490Z,12.51
2019-04-10T10:30:09.372Z,12.63
2019-04-10T10:32:42.131Z,12.50
2019-04-10T10:35:14.671Z,12.06
2019-04-10T10:37:46.319Z,11.86
2019-04-10T10:40:19.313Z,11.96
2019-04-10T10:42:50.446Z,11.91
2019-04-10T10:45:22.831Z,11.73
2019-04-10T10:47:54.762Z,12.07
2019-04-10T10:50:25.896Z,12.28
2019-04-10T10:52:57.595Z,12.16
2019-04-10T10:55:29.735Z,12.24
2019-04-10T10:58:01.691Z,12.63
2019-04-10T11:00:33.571Z,12.34
2019-04-10T11:03:05.700Z,12.38
2019-04-10T11:05:37.305Z,12.58
2019-04-10T11:08:08.444Z,12.01
2019-04-10T11:10:39.499Z,12.30
2019-04-10T11:13:10.500Z,12.59
2019-04-10T11:15:45.217Z,12.53
2019-04-10T11:18:14.478Z,12.38
2019-04-10T11:20:45.556Z,12.24
2019-04-10T11:23:18.246Z,11.54
2019-04-10T11:25:50.357Z,12.35
2019-04-10T11:28:22.258Z,12.60
2019-04-10T11:30:54.290Z,12.88
2019-04-10T11:33:26.322Z,12.56
2019-04-10T11:36:00.097Z,12.59
2019-04-10T11:38:31.209Z,12.81
2019-04-10T11:41:03.539Z,12.88
2019-04-10T11:43:36.226Z,12.81
2019-04-10T11:46:08.122Z,12.78
2019-04-10T11:48:41.861Z,12.87
2019-04-10T11:51:13.451Z,12.59
2019-04-10T11:53:50.750Z,12.53
2019-04-10T11:56:19.194Z,12.90
2019-04-10T11:58:55.858Z,12.58
2019-04-10T12:01:25.549Z,12.55
2019-04-10T12:03:56.790Z,13.03
2019-04-10T12:06:29.860Z,13.22
2019-04-10T12:09:32.041Z,12.62
2019-04-10T12:11:37.103Z,13.06
2019-04-10T12:14:08.219Z,12.78
2019-04-10T12:16:39.225Z,13.08
2019-04-10T12:19:11.038Z,13.19
2019-04-10T12:21:42.185Z,12.88
2019-04-10T12:24:14.054Z,12.34
2019-04-10T12:26:45.299Z,12.44
2019-04-10T12:29:16.317Z,12.91
2019-04-10T12:31:48.206Z,12.59
2019-04-10T12:34:20.215Z,12.76
2019-04-10T12:36:53.427Z,12.85
2019-04-10T12:39:25.112Z,12.98
2019-04-10T12:41:56.243Z,12.93
2019-04-10T12:44:27.238Z,12.98
2019-04-10T12:46:58.237Z,12.63
2019-04-10T12:49:29.738Z,12.51
2019-04-10T12:52:00.800Z,12.68
2019-04-10T12:54:31.944Z,12.42
2019-04-10T12:57:04.241Z,12.87
2019-04-10T12:59:35.384Z,12.91
2019-04-10T13:02:06.594Z,12.74
2019-04-10T13:04:38.607Z,12.47
2019-04-10T13:07:09.709Z,12.53
2019-04-10T13:09:40.707Z,12.90
2019-04-10T13:12:11.794Z,12.81
2019-04-10T13:14:43.128Z,12.93
2019-04-10T13:17:16.487Z,12.76
2019-04-10T13:19:49.244Z,13.02
2019-04-10T13:22:20.378Z,12.71
2019-04-10T13:24:52.090Z,12.93
2019-04-10T13:27:23.330Z,12.90
2019-04-10T13:29:54.422Z,12.56
2019-04-10T13:32:25.586Z,12.66
2019-04-10T13:34:57.613Z,12.51
2019-04-10T13:37:28.725Z,12.42
2019-04-10T13:39:59.729Z,12.64
2019-04-10T13:42:31.585Z,12.52
2019-04-10T13:45:02.940Z,12.54
2019-04-10T13:47:35.250Z,12.77
2019-04-10T13:50:08.469Z,12.53
2019-04-10T13:52:42.603Z,12.59
2019-04-10T13:55:14.937Z,12.43
2019-04-10T13:57:46.616Z,12.49
2019-04-10T14:00:27.983Z,12.68
2019-04-10T14:02:59.076Z,12.69
2019-04-10T14:05:32.466Z,12.49
2019-04-10T14:08:03.477Z,12.86
2019-04-10T14:10:35.297Z,12.52
2019-04-10T14:13:07.474Z,12.53
2019-04-10T14:15:38.633Z,12.78
2019-04-10T14:18:10.230Z,12.58
2019-04-10T14:20:41.620Z,12.70
2019-04-10T14:23:22.360Z,12.58
2019-04-10T14:26:16.162Z,12.37
2019-04-10T14:28:49.399Z,12.68
2019-04-10T14:31:45.428Z,12.99
2019-04-10T14:34:18.413Z,12.62
2019-04-10T14:36:49.422Z,12.92
2019-04-10T14:39:21.440Z,12.80
2019-04-10T14:41:53.924Z,12.79
2019-04-10T14:44:25.025Z,12.60
2019-04-10T14:46:56.356Z,12.85
2019-04-10T14:49:27.357Z,12.93
2019-04-10T14:51:58.902Z,12.93
2019-04-10T14:54:30.172Z,12.73
2019-04-10T14:57:02.435Z,12.97
2019-04-10T14:59:33.835Z,12.40
2019-04-10T15:02:06.954Z,12.93
2019-04-10T15:04:37.967Z,12.77
2019-04-10T15:07:10.070Z,12.98
2019-04-10T15:10:36.697Z,12.98
2019-04-10T15:13:13.643Z,12.76
2019-04-10T15:15:40.711Z,13.09
2019-04-10T15:18:12.998Z,12.81
2019-04-10T15:20:45.306Z,12.58
2019-04-10T15:23:16.324Z,12.83
2019-04-10T15:25:47.510Z,12.99
2019-04-10T15:28:18.609Z,13.11
2019-04-10T15:30:50.745Z,12.77
2019-04-10T15:33:22.509Z,12.49
2019-04-10T15:35:53.699Z,12.53
2019-04-10T15:38:24.770Z,12.74
2019-04-10T15:40:56.795Z,12.97
2019-04-10T15:43:28.048Z,13.17
2019-04-10T15:46:00.123Z,12.92
2019-04-10T15:48:31.263Z,13.03
2019-04-10T15:51:03.530Z,13.14
2019-04-10T15:53:34.940Z,13.19
2019-04-10T15:56:06.206Z,12.94
2019-04-10T15:58:37.432Z,13.19
2019-04-10T16:01:12.361Z,13.17
2019-04-10T16:03:47.913Z,13.17
2019-04-10T16:06:19.124Z,13.20
2019-04-10T16:08:50.431Z,13.20
2019-04-10T16:11:52.734Z,13.31
2019-04-10T16:14:27.124Z,13.20
2019-04-10T16:17:10.410Z,13.04
2019-04-10T16:20:15.594Z,13.26
2019-04-10T16:23:01.736Z,13.17
2019-04-10T16:25:34.000Z,12.94
2019-04-10T16:28:06.358Z,12.92
2019-04-10T16:30:37.368Z,12.88
2019-04-10T16:33:09.068Z,12.85
2019-04-10T16:35:40.450Z,12.94
2019-04-10T16:38:12.128Z,12.79
2019-04-10T16:40:43.827Z,13.08
2019-04-10T16:43:16.004Z,13.14
2019-04-10T16:45:47.246Z,13.03
2019-04-10T16:48:18.913Z,13.00
2019-04-10T16:50:50.169Z,12.85
2019-04-10T16:53:22.188Z,12.84
2019-04-10T16:55:54.370Z,13.06
2019-04-10T16:58:25.604Z,13.05
2019-04-10T17:00:57.936Z,12.68
2019-04-10T17:03:29.656Z,12.76
2019-04-10T17:06:01.789Z,12.67
2019-04-10T17:08:34.067Z,12.69
2019-04-10T17:11:07.040Z,12.86
2019-04-10T17:13:38.507Z,12.76
2019-04-10T17:16:10.595Z,12.84
2019-04-10T17:18:41.723Z,12.83
2019-04-10T17:21:15.151Z,12.80
2019-04-10T17:23:46.935Z,12.87
2019-04-10T17:26:19.047Z,12.88
2019-04-10T17:28:50.438Z,12.51
2019-04-10T17:31:22.489Z,12.74
2019-04-10T17:33:54.468Z,12.75
2019-04-10T17:36:25.777Z,12.76
2019-04-10T17:38:56.829Z,12.71
2019-04-10T17:41:28.107Z,12.72
2019-04-10T17:44:01.115Z,12.83
2019-04-10T17:46:33.369Z,12.40
2019-04-10T17:49:05.363Z,12.34
2019-04-10T17:51:36.493Z,12.58
2019-04-10T17:54:07.495Z,12.66
2019-04-10T17:56:38.538Z,12.66
2019-04-10T17:59:09.856Z,12.63
2019-04-10T18:01:41.166Z,12.77
2019-04-10T18:04:12.334Z,12.68
2019-04-10T18:06:45.689Z,12.69
2019-04-10T18:09:16.181Z,12.70
2019-04-10T18:11:47.723Z,12.84
2019-04-10T18:14:19.431Z,12.49
2019-04-10T18:16:50.577Z,12.58
2019-04-10T18:19:22.191Z,12.54
2019-04-10T18:21:54.184Z,12.63
2019-04-10T18:24:26.216Z,12.13
2019-04-10T18:26:58.399Z,12.39
2019-04-10T18:29:30.942Z,12.08
2019-04-10T18:32:02.681Z,12.10
2019-04-10T18:34:33.941Z,12.37
2019-04-10T18:37:05.499Z,12.40
2019-04-10T18:39:36.712Z,12.54
2019-04-10T18:42:07.834Z,12.27
2019-04-10T18:44:39.583Z,12.39
2019-04-10T18:47:11.094Z,12.03
2019-04-10T18:49:43.376Z,12.17
2019-04-10T18:52:15.087Z,11.97
2019-04-10T18:54:46.212Z,12.06
2019-04-10T18:57:17.802Z,12.05
2019-04-10T19:00:03.444Z,12.14
2019-04-10T19:02:45.312Z,12.02
2019-04-10T19:05:19.918Z,12.24
2019-04-10T19:07:50.992Z,12.11
2019-04-10T19:10:22.206Z,12.27
2019-04-10T19:12:53.147Z,12.09
2019-04-10T19:15:24.413Z,12.25
2019-04-10T19:17:55.886Z,12.17
2019-04-10T19:20:26.902Z,11.82
2019-04-10T19:22:59.016Z,11.98
2019-04-10T19:25:30.364Z,11.92
2019-04-10T19:28:01.381Z,11.93
2019-04-10T19:31:08.070Z,11.96
2019-04-10T19:33:28.668Z,12.13
2019-04-10T19:35:59.685Z,12.14
2019-04-10T19:38:31.607Z,12.15
2019-04-10T19:41:02.797Z,12.14
2019-04-10T19:43:34.760Z,12.00
2019-04-10T19:46:06.698Z,12.18
2019-04-10T19:48:37.688Z,12.15
2019-04-10T19:51:09.781Z,12.24
2019-04-10T19:53:41.560Z,12.25
2019-04-10T19:56:12.739Z,12.17
2019-04-10T19:58:45.995Z,11.71
2019-04-10T20:01:17.191Z,12.01
2019-04-10T20:03:48.613Z,11.89
2019-04-10T20:06:21.346Z,12.06
2019-04-10T20:08:52.320Z,12.10
2019-04-10T20:11:33.787Z,11.91
2019-04-10T20:13:57.038Z,11.96
2019-04-10T20:16:28.856Z,11.84
2019-04-10T20:19:01.250Z,12.06
2019-04-10T20:21:32.370Z,11.93
2019-04-10T20:24:04.748Z,12.01
2019-04-10T20:26:36.907Z,11.87
2019-04-10T20:29:08.055Z,12.08
2019-04-10T20:31:39.598Z,12.05
2019-04-10T20:34:11.525Z,12.20
2019-04-10T20:36:42.682Z,11.82
2019-04-10T20:39:14.865Z,12.00
2019-04-10T20:41:51.942Z,12.04
2019-04-10T20:44:18.803Z,12.14
2019-04-10T20:46:50.753Z,12.05
2019-04-10T20:49:22.505Z,11.88
2019-04-10T20:51:53.681Z,11.74
2019-04-10T20:54:24.738Z,11.87
2019-04-10T20:56:56.978Z,11.99
2019-04-10T20:59:28.617Z,11.98
2019-04-10T21:01:59.954Z,11.95
2019-04-10T21:04:31.780Z,11.88
2019-04-10T21:07:03.028Z,11.94
2019-04-10T21:09:34.241Z,11.79
2019-04-10T21:12:10.375Z,11.66
2019-04-10T21:14:38.270Z,11.60
2019-04-10T21:17:09.269Z,11.77
2019-04-10T21:19:40.967Z,11.76
2019-04-10T21:22:12.026Z,11.76
2019-04-10T21:24:43.399Z,11.82
2019-04-10T21:27:14.511Z,11.89
2019-04-10T21:29:54.798Z,11.96
2019-04-10T21:32:52.910Z,11.92
2019-04-10T21:35:29.627Z,12.00
2019-04-10T21:38:02.591Z,11.84
2019-04-10T21:40:34.745Z,11.79
2019-04-10T21:43:07.006Z,11.75
2019-04-10T21:45:39.258Z,11.58
2019-04-10T21:48:10.504Z,11.62
2019-04-10T21:50:41.857Z,11.60
2019-04-10T21:53:12.957Z,11.15
2019-04-10T21:55:43.939Z,11.36
2019-04-10T21:58:14.927Z,11.40
2019-04-10T22:01:20.191Z,11.61
2019-04-10T22:03:52.886Z,11.59
2019-04-10T22:06:49.469Z,11.67
2019-04-10T22:09:39.055Z,11.56
2019-04-10T22:12:43.933Z,11.61
2019-04-10T22:15:22.582Z,11.57
2019-04-10T22:17:53.531Z,11.55
2019-04-10T22:20:25.653Z,11.48
2019-04-10T22:22:57.601Z,11.54
2019-04-10T22:25:29.742Z,11.77
2019-04-10T22:28:00.861Z,11.71
2019-04-10T22:30:32.907Z,11.74
2019-04-10T23:15:15.414Z,11.46
2019-04-10T23:17:46.423Z,11.48
2019-04-10T23:20:18.534Z,11.48
2019-04-10T23:22:50.626Z,11.43
2019-04-10T23:25:22.464Z,11.30
2019-04-10T23:27:56.218Z,11.25
2019-04-10T23:30:26.721Z,11.17
2019-04-10T23:32:57.800Z,11.32
2019-04-10T23:35:29.508Z,11.03
2019-04-10T23:38:01.487Z,11.26
2019-04-10T23:40:32.829Z,11.26
2019-04-10T23:43:11.265Z,10.97
2019-04-10T23:45:37.699Z,10.91
2019-04-10T23:48:08.966Z,10.91
2019-04-10T23:50:40.651Z,10.91
2019-04-10T23:53:12.076Z,11.02
2019-04-10T23:55:43.256Z,11.20
2019-04-10T23:58:14.333Z,10.88
